Historyczne dane pomiarowe

Dodano dane terminowe – wersja testowa.

Dane z okresu 1951-2019

Wersja bazy: 1.34 [2019-03-16, lista zmian], aktualizacja planowana na 2019-04-15

Dane meteo z obszaru Polski uzyskane na podstawie danych udostępnionych przez Instytut Meteorologii i Gospodarki Wodnej – Państwowy Instytut Badawczy.

 

Wybierz Datę:    

       

TemperaturaWilgotnośćWiatrCiśnienieOpadyŚniegCzas trwania zjawisk
 Stacja t tx tn tng RH VA  wxwx mslp ppp RRR   cm mm wxwxwxwxwxwxwx
1986-12-13 -0.1 3.6 -3.1- 88.5- 5.3 2.7---- 0.0------------
1986-12-14 -1.7 0.1 -3.3- 90.3- 8.0 3.7-----------------
1986-12-15 1.2 1.6 -1.4- 98.3- 8.0 3.3---- 0.0------------
1986-12-16 1.3 3.5 -0.6- 93.3- 8.0 7.7---- 1.6------------
1986-12-17 2.8 4.1 0.9- 90.3- 2.7 7.3---- 1.1------------
1986-12-18 3.1 3.7 0.9- 96.3- 8.0 4.3---- 2.1------------
1986-12-19 2.3 4.1 1.1- 92.0- 7.3 6.3---- 4.0------------
1986-12-20 0.8 1.7 -0.3- 91.3- 6.3 8.0---- 0.0------------
1986-12-21 -3.5 0.1 -5.3- 80.8- 2.0 4.7---- 0.0------------
1986-12-22 -3.4 -1.4 -6.0- 89.5- 7.0 6.0-----------------
1986-12-23 -2.1 -0.4 -4.5- 94.5- 4.3 5.0---- 0.6-- 12---------
1986-12-24 -7.1 -2.4 -8.0- 92.3- 7.7 3.3---- 0.0-- 10---------
1986-12-25 -6.0 -3.4 -8.0- 95.5- 6.3 3.0---- 0.0-- 9---------
1986-12-26 -7.2 -4.9 -7.5- 90.5- 7.7 6.7---- 0.1-- 9---------
1986-12-27 -2.8 0.6 -7.4- 95.5- 8.0 4.7---- 0.1-- 15---------
1986-12-28 -0.2 1.5 -1.6- 96.0- 7.3 5.0------- 16---------
1986-12-29 0.5 4.6 -4.5- 93.0- 5.3 8.3---- 0.4-- 14---------
1986-12-30 0.7 3.1 -1.8- 79.0- 6.3 9.0---- 0.0-- 12---------
1986-12-31 -2.5 -0.9 -4.5- 90.0- 8.0 3.3---- 0.0-- 12---------
1987-01-01 -2.5 -0.5 -6.4- 90.0- 5.3 4.3---- 0.0-- 12---------
1987-01-02-12.0 -6.0-15.4- 87.0- 2.3 2.3---- 0.0-- 12---------
1987-01-03 -9.0 -2.6-18.5- 86.5- 7.3 4.0---- 0.7-- 13---------
1987-01-04 -7.1 -2.5 -9.2- 85.0- 2.0 4.7---- 0.5-- 17---------
1987-01-05 -6.3 -3.0-10.0- 88.8- 8.0 8.7---- 0.5-- 19---------
1987-01-06 -5.5 1.5-13.0- 87.0- 8.0 7.0---- 1.7-- 25---------
1987-01-07-21.0-12.9-25.0- 76.8- 0.0 4.3---- 3.8-- 35---------
1987-01-08-16.0 -9.0-29.8- 85.5- 6.3 4.7---- 0.0-- 34---------
1987-01-09-11.3 -8.0-17.5- 89.5- 6.0 4.3---- 0.0-- 30---------
1987-01-10-21.9-15.9-25.8- 81.5- 3.0 2.3---- 0.0-- 30---------
1987-01-11-25.5-22.4-28.3- 78.5- 3.7 3.3---- 0.0-- 27---------
349.4 ms

 

Źródłem pochodzenia danych jest Instytut Meteorologii i Gospodarki Wodnej – Państwowy Instytut Badawczy. Dane Instytutu Meteorologii i Gospodarki Wodnej – Państwowego Instytutu Badawczego zostały przetworzone.

Dane źródłowe można odnaleźć na stronie https://dane.imgw.pl